Fidelity, IL (62030)

11:38 PM CST on November 28, 2014 (GMT -0600)
Jersey County along IL 111 | Change Station
CLOSE
Current Station
Personal Weather Station
Location: Brighton, IL
Elevation: 661 ft
Nearby Weather Stations

Elev 661 ft 39.00 °N, 90.16 °W | Updated 10 seconds ago

Partly Cloudy
Partly Cloudy
37.6 °F
Feels Like 38 °F
N
0.0
Wind Variable Wind from South
Gusts 0.0 mph

Today
High -- | Low -- °F
--% Chance of Precip.
Yesterday
High -- | Low -- °F
Precip. -- in
6:58 AM 4:39 PM
Waxing Crescent, 48% visible
Pressure 29.90 in
Visibility 10.0 miles
Clouds Clear
Windchill 38 °F
Dew Point 33 °F
Humidity 83%
Rainfall 0.00 in
Snow Depth Not available.
UV 0 out of 12
Pollen .90 out of 12
Air Quality Not available.
Flu Activity Not available.
METAR KALN 290515Z AUTO 17009KT 10SM CLR 05/01 A2990 RMK AO2 T00480007

More Conditions Fewer Conditions

Pressure 29.90 in
Visibility 10.0 miles
Clouds Clear
Windchill 38 °F
Dew Point 33 °F
Humidity 83%
Rainfall 0.00 in
Snow Depth Not available.
UV 0 out of 12
Pollen .90 out of 12
Air Quality Not available.
Flu Activity Not available.
METAR KALN 290515Z AUTO 17009KT 10SM CLR 05/01 A2990 RMK AO2 T00480007

More Conditions Fewer Conditions

10-Day Weather Forecast

Almanac

Astronomy

Nov. 28, 2014 Rise Set
Actual Time
Civil Twilight
Nautical Twilight
Astronomical Twilight
Moon
Length of Visible Light
Length of Day
Tomorrow will be .
, % of the Moon is Illuminated

Today's Extremes

State Highs State Lows

Community

WunderPhotos

Upload Photos

1,774,419 photos uploaded!

WunderBlogs® & News

Nearby

Air Quality

  Air Quality AQ Index Pollutant
Not available.

Snow Depth

Station Depth Elevation

Earthquake Activity

City Distance Mag. Time & Date
Minimum magnitude displayed is 2.5.

Coastal Water Temperatures

Place Temperature

Nearby Weather Stations